createdAt,value
2018-04-01T00:01:00.964Z,5.90
2018-04-01T00:02:04.590Z,5.90
2018-04-01T00:03:08.069Z,5.80
2018-04-01T00:04:11.561Z,5.80
2018-04-01T00:05:14.282Z,5.80
2018-04-01T00:06:17.004Z,5.80
2018-04-01T00:07:20.481Z,5.70
2018-04-01T00:08:24.078Z,5.70
2018-04-01T00:09:27.562Z,5.70
2018-04-01T00:10:31.055Z,5.70
2018-04-01T00:11:34.548Z,5.70
2018-04-01T00:12:38.048Z,5.70
2018-04-01T00:13:40.815Z,5.70
2018-04-01T00:14:44.411Z,5.80
2018-04-01T00:15:47.131Z,5.70
2018-04-01T00:16:49.931Z,5.80
2018-04-01T00:17:53.421Z,5.70
2018-04-01T00:18:56.897Z,5.70
2018-04-01T00:19:59.618Z,5.70
2018-04-01T00:21:02.345Z,5.70
2018-04-01T00:22:05.093Z,5.70
2018-04-01T00:23:07.820Z,5.70
2018-04-01T00:24:10.530Z,5.70
2018-04-01T00:25:13.369Z,5.70
2018-04-01T00:26:16.108Z,5.70
2018-04-01T00:27:19.591Z,5.70
2018-04-01T00:28:23.125Z,5.70
2018-04-01T00:29:25.853Z,5.70
2018-04-01T00:30:29.368Z,5.70
2018-04-01T00:31:32.119Z,5.70
2018-04-01T00:32:35.591Z,5.70
2018-04-01T00:33:38.296Z,5.60
2018-04-01T00:34:41.046Z,5.70
2018-04-01T00:35:44.674Z,5.60
2018-04-01T00:36:47.377Z,5.60
2018-04-01T00:37:50.090Z,5.70
2018-04-01T00:38:53.577Z,5.60
2018-04-01T00:39:57.058Z,5.60
2018-04-01T00:41:00.544Z,5.60
2018-04-01T00:42:04.040Z,5.60
2018-04-01T00:43:06.757Z,5.60
2018-04-01T00:44:09.493Z,5.60
2018-04-01T00:45:12.520Z,5.60
2018-04-01T00:46:15.320Z,5.60
2018-04-01T00:47:18.821Z,5.60
2018-04-01T00:48:22.325Z,5.60
2018-04-01T00:49:25.040Z,5.60
2018-04-01T00:50:27.759Z,5.60
2018-04-01T00:51:31.248Z,5.70
2018-04-01T00:52:34.768Z,5.70
2018-04-01T00:53:37.460Z,5.70
2018-04-01T00:54:40.177Z,5.70
2018-04-01T00:55:43.724Z,5.60
2018-04-01T00:56:46.434Z,5.60
2018-04-01T00:57:49.921Z,5.60
2018-04-01T00:58:53.420Z,5.60
2018-04-01T00:59:56.142Z,5.50
2018-04-01T01:00:58.876Z,5.60
2018-04-01T01:02:01.627Z,5.60
2018-04-01T01:03:04.308Z,5.60
2018-04-01T01:04:07.063Z,5.60
2018-04-01T01:05:10.619Z,5.70
2018-04-01T01:06:13.314Z,5.70
2018-04-01T01:07:16.820Z,5.70
2018-04-01T01:08:20.324Z,5.60
2018-04-01T01:09:23.896Z,5.60
2018-04-01T01:10:27.392Z,5.50
2018-04-01T01:11:30.099Z,5.50
2018-04-01T01:12:32.835Z,5.60
2018-04-01T01:13:35.564Z,5.60
2018-04-01T01:14:38.271Z,5.60
2018-04-01T01:15:41.001Z,5.50
2018-04-01T01:16:43.724Z,5.50
2018-04-01T01:17:46.481Z,5.60
2018-04-01T01:18:49.957Z,5.70
2018-04-01T01:19:53.436Z,5.70
2018-04-01T01:20:56.212Z,5.70
2018-04-01T01:21:58.957Z,5.80
2018-04-01T01:23:01.646Z,5.80
2018-04-01T01:24:04.367Z,5.70
2018-04-01T01:25:07.069Z,5.70
2018-04-01T01:26:09.793Z,5.60
2018-04-01T01:27:12.551Z,5.60
2018-04-01T01:28:15.258Z,5.60
2018-04-01T01:29:17.969Z,5.60
2018-04-01T01:30:20.695Z,5.60
2018-04-01T01:31:23.396Z,5.70
2018-04-01T01:32:27.626Z,5.70
2018-04-01T01:33:31.109Z,5.70
2018-04-01T01:34:34.623Z,5.80
2018-04-01T01:35:38.095Z,5.80
2018-04-01T01:36:41.587Z,5.70
2018-04-01T01:37:45.089Z,5.70
2018-04-01T01:38:48.563Z,5.70
2018-04-01T01:39:51.305Z,5.70
2018-04-01T01:40:54.017Z,5.70
2018-04-01T01:41:57.492Z,5.70
2018-04-01T01:43:01.028Z,5.70
2018-04-01T01:44:03.749Z,5.70
2018-04-01T01:45:07.229Z,5.70
2018-04-01T01:46:09.942Z,5.70
2018-04-01T01:47:12.672Z,5.70
2018-04-01T01:48:15.373Z,5.80
2018-04-01T01:49:18.105Z,5.80
2018-04-01T01:50:20.821Z,5.80
2018-04-01T01:51:23.540Z,5.70
2018-04-01T01:52:26.260Z,5.70
2018-04-01T01:53:28.976Z,5.70
2018-04-01T01:54:31.703Z,5.70
2018-04-01T01:55:34.480Z,5.70
2018-04-01T01:56:37.177Z,5.70
2018-04-01T01:57:39.919Z,5.70
2018-04-01T01:58:42.643Z,5.70
2018-04-01T01:59:45.440Z,5.70
2018-04-01T02:00:48.938Z,5.70
2018-04-01T02:01:52.434Z,5.70
2018-04-01T02:02:55.150Z,5.70
2018-04-01T02:03:57.876Z,5.70
2018-04-01T02:05:01.359Z,5.80
2018-04-01T02:06:04.965Z,5.80
2018-04-01T02:07:07.677Z,5.70
2018-04-01T02:08:10.403Z,5.70
2018-04-01T02:09:13.879Z,5.70
2018-04-01T02:10:17.348Z,5.80
2018-04-01T02:11:20.834Z,5.90
2018-04-01T02:12:23.552Z,5.90
2018-04-01T02:13:26.313Z,5.80
2018-04-01T02:14:29.025Z,5.80
2018-04-01T02:15:31.762Z,5.80
2018-04-01T02:16:34.513Z,5.80
2018-04-01T02:17:38.006Z,5.70
2018-04-01T02:18:41.488Z,5.70
2018-04-01T02:19:44.981Z,5.70
2018-04-01T02:20:48.471Z,5.70
2018-04-01T02:21:51.961Z,5.70
2018-04-01T02:22:54.680Z,5.70
2018-04-01T02:23:57.412Z,5.70
2018-04-01T02:25:00.125Z,5.70
2018-04-01T02:26:02.849Z,5.70
2018-04-01T02:27:05.569Z,5.70
2018-04-01T02:28:08.291Z,5.70
2018-04-01T02:29:11.024Z,5.70
2018-04-01T02:30:13.846Z,5.60
2018-04-01T02:31:16.601Z,5.70
2018-04-01T02:32:19.324Z,5.70
2018-04-01T02:33:22.146Z,5.70
2018-04-01T02:34:24.844Z,5.70
2018-04-01T02:35:27.552Z,5.70
2018-04-01T02:36:30.272Z,5.60
2018-04-01T02:37:32.987Z,5.70
2018-04-01T02:38:35.737Z,5.70
2018-04-01T02:39:39.239Z,5.70
2018-04-01T02:40:42.023Z,5.60
2018-04-01T02:41:45.494Z,5.60
2018-04-01T02:42:48.346Z,5.60
2018-04-01T02:43:51.072Z,5.60
2018-04-01T02:44:53.777Z,5.60
2018-04-01T02:45:56.511Z,5.60
2018-04-01T02:46:59.227Z,5.60
2018-04-01T02:48:01.981Z,5.60
2018-04-01T02:49:04.676Z,5.50
2018-04-01T02:50:08.178Z,5.60
2018-04-01T02:51:10.905Z,5.60
2018-04-01T02:52:13.639Z,5.60
2018-04-01T02:53:16.379Z,5.60
2018-04-01T02:54:19.071Z,5.60
2018-04-01T02:55:21.808Z,5.70
2018-04-01T02:56:24.530Z,5.70
2018-04-01T02:57:27.289Z,5.70
2018-04-01T02:58:30.013Z,5.70
2018-04-01T02:59:32.747Z,5.70
2018-04-01T03:00:35.456Z,5.80
2018-04-01T03:01:38.173Z,5.70
2018-04-01T03:02:40.900Z,5.70
2018-04-01T03:03:43.616Z,5.70
2018-04-01T03:04:46.335Z,5.60
2018-04-01T03:05:49.983Z,5.60
2018-04-01T03:06:52.702Z,5.60
2018-04-01T03:07:56.194Z,5.50
2018-04-01T03:08:58.997Z,5.50
2018-04-01T03:10:02.472Z,5.50
2018-04-01T03:11:06.076Z,5.50
2018-04-01T03:12:09.503Z,5.40
2018-04-01T03:13:12.226Z,5.50
2018-04-01T03:14:15.793Z,5.50
2018-04-01T03:15:19.304Z,5.40
2018-04-01T03:16:22.837Z,5.40
2018-04-01T03:17:25.543Z,5.40
2018-04-01T03:18:28.277Z,5.40
2018-04-01T03:19:30.993Z,5.40
2018-04-01T03:20:33.709Z,5.40
2018-04-01T03:21:36.426Z,5.40
2018-04-01T03:22:39.141Z,5.50
2018-04-01T03:23:41.950Z,5.50
2018-04-01T03:24:44.668Z,5.40
2018-04-01T03:25:47.807Z,5.40
2018-04-01T03:26:50.536Z,5.40
2018-04-01T03:27:54.257Z,5.30
2018-04-01T03:28:56.943Z,5.30
2018-04-01T03:29:59.655Z,5.30
2018-04-01T03:31:03.148Z,5.30
2018-04-01T03:32:06.628Z,5.30
2018-04-01T03:33:10.131Z,5.30
2018-04-01T03:34:12.849Z,5.30
2018-04-01T03:35:15.603Z,5.30
2018-04-01T03:36:18.316Z,5.30
2018-04-01T03:37:21.029Z,5.30
2018-04-01T03:38:23.755Z,5.30
2018-04-01T03:39:26.476Z,5.40
2018-04-01T03:40:29.209Z,5.40
2018-04-01T03:41:31.920Z,5.30
2018-04-01T03:42:34.648Z,5.30
2018-04-01T03:43:38.142Z,5.30
2018-04-01T03:44:41.640Z,5.30
2018-04-01T03:45:44.362Z,5.30
2018-04-01T03:46:47.088Z,5.30
2018-04-01T03:47:49.869Z,5.30
2018-04-01T03:48:52.591Z,5.30
2018-04-01T03:49:55.384Z,5.30
2018-04-01T03:50:58.894Z,5.30
2018-04-01T03:52:01.612Z,5.30
2018-04-01T03:53:04.330Z,5.40
2018-04-01T03:54:07.132Z,5.40
2018-04-01T03:55:09.844Z,5.30
2018-04-01T03:56:12.566Z,5.30
2018-04-01T03:57:15.284Z,5.30
2018-04-01T03:58:17.995Z,5.30
2018-04-01T03:59:20.700Z,5.30
2018-04-01T04:00:23.429Z,5.30
2018-04-01T04:01:26.147Z,5.20
2018-04-01T04:02:28.874Z,5.30
2018-04-01T04:03:31.592Z,5.30
2018-04-01T04:04:34.585Z,5.30
2018-04-01T04:05:37.276Z,5.30
2018-04-01T04:06:40.748Z,5.30
2018-04-01T04:07:44.249Z,5.30
2018-04-01T04:08:46.968Z,5.20
2018-04-01T04:09:49.866Z,5.20
2018-04-01T04:10:52.586Z,5.20
2018-04-01T04:11:56.071Z,5.20
2018-04-01T04:12:59.587Z,5.20
2018-04-01T04:14:02.340Z,5.20
2018-04-01T04:15:05.075Z,5.20
2018-04-01T04:16:07.796Z,5.20
2018-04-01T04:17:10.539Z,5.20
2018-04-01T04:18:14.013Z,5.10
2018-04-01T04:19:17.514Z,5.10
2018-04-01T04:20:20.998Z,5.10
2018-04-01T04:21:24.484Z,5.10
2018-04-01T04:22:27.972Z,5.10
2018-04-01T04:23:31.452Z,5.10
2018-04-01T04:24:34.244Z,5.00
2018-04-01T04:25:37.024Z,5.10
2018-04-01T04:26:39.747Z,5.10
2018-04-01T04:27:42.456Z,5.10
2018-04-01T04:28:45.244Z,5.10
2018-04-01T04:29:47.963Z,5.10
2018-04-01T04:30:50.684Z,5.10
2018-04-01T04:31:53.448Z,5.10
2018-04-01T04:32:57.044Z,5.10
2018-04-01T04:34:00.520Z,5.10
2018-04-01T04:35:03.227Z,5.00
2018-04-01T04:36:06.063Z,5.10
2018-04-01T04:37:09.571Z,5.20
2018-04-01T04:38:12.290Z,5.20
2018-04-01T04:39:15.010Z,5.10
2018-04-01T04:40:17.721Z,5.20
2018-04-01T04:41:20.460Z,5.20
2018-04-01T04:42:23.222Z,5.20
2018-04-01T04:43:25.933Z,5.10
2018-04-01T04:44:28.668Z,5.10
2018-04-01T04:45:31.373Z,5.10
2018-04-01T04:46:34.183Z,5.10
2018-04-01T04:47:37.667Z,5.20
2018-04-01T04:48:40.384Z,5.20
2018-04-01T04:49:43.107Z,5.20
2018-04-01T04:50:45.883Z,5.10
2018-04-01T04:51:49.366Z,5.10
2018-04-01T04:52:52.867Z,5.10
2018-04-01T04:53:56.361Z,5.20
2018-04-01T04:54:59.900Z,5.20
2018-04-01T04:56:02.596Z,5.20
2018-04-01T04:57:05.325Z,5.30
2018-04-01T04:58:08.796Z,5.20
2018-04-01T05:00:11.601Z,5.20
2018-04-01T05:01:14.316Z,5.20
2018-04-01T05:02:17.006Z,5.30
2018-04-01T05:03:19.767Z,5.20
2018-04-01T05:04:23.358Z,5.20
2018-04-01T05:05:26.837Z,5.20
2018-04-01T05:06:30.342Z,5.30
2018-04-01T05:07:33.052Z,5.20
2018-04-01T05:08:35.880Z,5.30
2018-04-01T05:09:39.472Z,5.40
2018-04-01T05:10:43.573Z,5.40
2018-04-01T05:11:47.063Z,5.40
2018-04-01T05:12:50.660Z,5.40
2018-04-01T05:13:54.140Z,5.40
2018-04-01T05:14:57.668Z,5.40
2018-04-01T05:16:00.361Z,5.40
2018-04-01T05:17:03.096Z,5.40
2018-04-01T05:18:05.822Z,5.40
2018-04-01T05:19:08.545Z,5.40
2018-04-01T05:20:11.262Z,5.40
2018-04-01T05:21:14.748Z,5.40
2018-04-01T05:22:17.456Z,5.40
2018-04-01T05:23:20.170Z,5.40
2018-04-01T05:24:22.903Z,5.40
2018-04-01T05:25:25.649Z,5.40
2018-04-01T05:26:28.362Z,5.40
2018-04-01T05:27:31.088Z,5.40
2018-04-01T05:28:34.586Z,5.40
2018-04-01T05:29:37.314Z,5.40
2018-04-01T05:30:40.024Z,5.50
2018-04-01T05:31:43.514Z,5.40
2018-04-01T05:32:47.225Z,5.40
2018-04-01T05:33:49.976Z,5.40
2018-04-01T05:34:53.456Z,5.40
2018-04-01T05:35:56.935Z,5.40
2018-04-01T05:36:59.648Z,5.40
2018-04-01T05:38:02.362Z,5.40
2018-04-01T05:39:05.089Z,5.40
2018-04-01T05:40:07.803Z,5.40
2018-04-01T05:41:10.516Z,5.40
2018-04-01T05:42:14.005Z,5.40
2018-04-01T05:43:17.501Z,5.40
2018-04-01T05:44:20.220Z,5.30
2018-04-01T05:45:22.977Z,5.40
2018-04-01T05:46:25.677Z,5.30
2018-04-01T05:47:28.432Z,5.40
2018-04-01T05:48:31.202Z,5.40
2018-04-01T05:49:33.921Z,5.40
2018-04-01T05:50:37.393Z,5.60
2018-04-01T05:51:40.931Z,5.60
2018-04-01T05:52:43.643Z,5.50
2018-04-01T05:53:46.361Z,5.60
2018-04-01T05:54:49.106Z,5.60
2018-04-01T05:55:52.641Z,5.60
2018-04-01T05:56:55.344Z,5.60
2018-04-01T05:57:58.074Z,5.60
2018-04-01T05:59:00.807Z,5.60
2018-04-01T06:00:04.305Z,5.60
2018-04-01T06:01:07.821Z,5.60
2018-04-01T06:02:10.524Z,5.60
2018-04-01T06:03:13.289Z,5.60
2018-04-01T06:04:16.015Z,5.60
2018-04-01T06:05:18.784Z,5.50
2018-04-01T06:06:21.562Z,5.60
2018-04-01T06:07:24.292Z,5.60
2018-04-01T06:08:27.022Z,5.70
2018-04-01T06:09:29.760Z,5.70
2018-04-01T06:10:32.471Z,5.80
2018-04-01T06:11:35.228Z,5.80
2018-04-01T06:12:37.956Z,5.90
2018-04-01T06:13:41.452Z,5.80
2018-04-01T06:14:44.200Z,5.90
2018-04-01T06:15:46.944Z,5.80
2018-04-01T06:16:49.653Z,5.80
2018-04-01T06:17:52.459Z,5.70
2018-04-01T06:18:55.934Z,5.70
2018-04-01T06:19:59.410Z,5.70
2018-04-01T06:21:02.931Z,5.70
2018-04-01T06:22:05.641Z,5.70
2018-04-01T06:23:08.371Z,5.60
2018-04-01T06:24:11.088Z,5.70
2018-04-01T06:25:13.806Z,5.70
2018-04-01T06:26:16.535Z,5.70
2018-04-01T06:27:19.335Z,5.80
2018-04-01T06:28:22.827Z,5.80
2018-04-01T06:29:26.316Z,5.80
2018-04-01T06:30:29.818Z,5.90
2018-04-01T06:31:32.533Z,5.90
2018-04-01T06:32:35.306Z,5.90
2018-04-01T06:33:38.025Z,6.00
2018-04-01T06:34:40.741Z,5.90
2018-04-01T06:35:43.548Z,5.90
2018-04-01T06:36:47.040Z,5.90
2018-04-01T06:37:50.534Z,5.90
2018-04-01T06:38:54.056Z,5.80
2018-04-01T06:39:57.574Z,5.90
2018-04-01T06:41:00.995Z,5.90
2018-04-01T06:42:03.719Z,5.90
2018-04-01T06:43:06.438Z,5.90
2018-04-01T06:44:09.216Z,5.80
2018-04-01T06:45:12.709Z,5.70
2018-04-01T06:46:16.205Z,5.80
2018-04-01T06:47:19.006Z,5.80
2018-04-01T06:48:21.724Z,5.80
2018-04-01T06:49:24.513Z,5.80
2018-04-01T06:50:27.981Z,5.90
2018-04-01T06:51:30.718Z,5.80
2018-04-01T06:52:33.423Z,5.80
2018-04-01T06:53:36.146Z,5.80
2018-04-01T06:54:38.913Z,5.80
2018-04-01T06:55:41.653Z,5.70
2018-04-01T06:56:45.253Z,5.90
2018-04-01T06:57:48.736Z,5.90
2018-04-01T06:58:52.236Z,5.80
2018-04-01T06:59:55.710Z,5.80
2018-04-01T07:00:59.213Z,5.70
2018-04-01T07:02:02.694Z,5.60
2018-04-01T07:03:06.186Z,5.60
2018-04-01T07:04:09.672Z,5.60
2018-04-01T07:05:13.184Z,5.60
2018-04-01T07:06:15.935Z,5.60
2018-04-01T07:07:19.423Z,5.60
2018-04-01T07:08:22.319Z,5.60
2018-04-01T07:09:25.040Z,5.50
2018-04-01T07:10:27.761Z,5.40
2018-04-01T07:11:30.505Z,5.40
2018-04-01T07:12:33.984Z,5.50
2018-04-01T07:13:37.474Z,5.60
2018-04-01T07:14:40.983Z,5.50
2018-04-01T07:15:43.709Z,5.50
2018-04-01T07:16:46.420Z,5.60
2018-04-01T07:17:49.168Z,5.50
2018-04-01T07:18:51.948Z,5.50
2018-04-01T07:19:55.422Z,5.60
2018-04-01T07:20:58.140Z,5.60
2018-04-01T07:22:00.865Z,5.60
2018-04-01T07:23:03.583Z,5.60
2018-04-01T07:24:06.312Z,5.60
2018-04-01T07:25:09.029Z,5.60
2018-04-01T07:26:11.770Z,5.70
2018-04-01T07:27:15.255Z,5.60
2018-04-01T07:28:18.807Z,5.70
2018-04-01T07:29:21.577Z,5.70
2018-04-01T07:30:24.289Z,5.70
2018-04-01T07:31:27.036Z,5.80
2018-04-01T07:32:29.721Z,5.80
2018-04-01T07:33:32.428Z,5.70
2018-04-01T07:34:35.130Z,5.70
2018-04-01T07:35:37.867Z,5.80
2018-04-01T07:36:40.594Z,5.80
2018-04-01T07:37:44.068Z,5.90
2018-04-01T07:38:46.783Z,5.90
2018-04-01T07:39:50.270Z,5.90
2018-04-01T07:40:53.752Z,5.90
2018-04-01T07:41:57.278Z,5.90
2018-04-01T07:43:00.766Z,5.90
2018-04-01T07:44:03.504Z,5.90
2018-04-01T07:45:07.005Z,6.00
2018-04-01T07:46:09.713Z,6.00
2018-04-01T07:47:12.440Z,6.10
2018-04-01T07:48:15.472Z,6.10
2018-04-01T07:49:18.191Z,6.10
2018-04-01T07:50:20.909Z,6.20
2018-04-01T07:51:23.632Z,6.30
2018-04-01T07:52:27.104Z,6.40
2018-04-01T07:53:30.611Z,6.40
2018-04-01T07:54:34.069Z,6.40
2018-04-01T07:55:36.800Z,6.40
2018-04-01T07:56:39.508Z,6.50
2018-04-01T07:57:42.235Z,6.60
2018-04-01T07:58:44.948Z,6.40
2018-04-01T07:59:47.673Z,6.30
2018-04-01T08:00:50.388Z,6.30
2018-04-01T08:01:53.107Z,6.40
2018-04-01T08:02:55.854Z,6.40
2018-04-01T08:03:59.329Z,6.50
2018-04-01T08:05:02.065Z,6.50
2018-04-01T08:06:04.804Z,6.50
2018-04-01T08:07:08.525Z,6.40
2018-04-01T08:08:11.299Z,6.40
2018-04-01T08:09:14.008Z,6.40
2018-04-01T08:10:16.722Z,6.30
2018-04-01T08:11:19.495Z,6.30
2018-04-01T08:12:22.178Z,6.30
2018-04-01T08:13:24.914Z,6.40
2018-04-01T08:14:27.637Z,6.30
2018-04-01T08:15:30.353Z,6.30
2018-04-01T08:16:33.872Z,6.30
2018-04-01T08:17:36.593Z,6.30
2018-04-01T08:18:39.313Z,6.30
2018-04-01T08:19:42.022Z,6.30
2018-04-01T08:20:44.757Z,6.20
2018-04-01T08:21:47.487Z,6.20
2018-04-01T08:22:50.964Z,6.20
2018-04-01T08:23:53.685Z,6.20
2018-04-01T08:24:56.427Z,6.20
2018-04-01T08:25:59.143Z,6.20
2018-04-01T08:27:01.858Z,6.20
2018-04-01T08:28:05.343Z,6.20
2018-04-01T08:29:08.085Z,6.20
2018-04-01T08:30:10.900Z,6.20
2018-04-01T08:31:13.641Z,6.10
2018-04-01T08:32:16.366Z,6.20
2018-04-01T08:33:19.120Z,6.10
2018-04-01T08:34:22.451Z,6.00
2018-04-01T08:35:25.176Z,6.00
2018-04-01T08:36:28.640Z,6.00
2018-04-01T08:37:32.132Z,5.90
2018-04-01T08:38:34.873Z,5.90
2018-04-01T08:39:37.587Z,5.80
2018-04-01T08:40:41.092Z,5.90
2018-04-01T08:41:43.817Z,5.90
2018-04-01T08:42:46.562Z,5.90
2018-04-01T08:43:49.298Z,5.80
2018-04-01T08:44:52.018Z,5.80
2018-04-01T08:45:54.720Z,5.80
2018-04-01T08:46:58.208Z,5.80
2018-04-01T08:48:01.694Z,5.70
2018-04-01T08:49:04.436Z,5.80
2018-04-01T08:50:07.147Z,5.70
2018-04-01T08:51:10.748Z,5.70
2018-04-01T08:52:14.250Z,5.80
2018-04-01T08:53:17.022Z,5.80
2018-04-01T08:54:19.698Z,5.90
2018-04-01T08:55:22.416Z,5.90
2018-04-01T08:56:25.148Z,5.90
2018-04-01T08:57:27.877Z,5.80
2018-04-01T08:58:31.361Z,5.80
2018-04-01T08:59:34.874Z,5.70
2018-04-01T09:00:38.347Z,5.80
2018-04-01T09:01:41.845Z,5.70
2018-04-01T09:02:45.334Z,5.70
2018-04-01T09:03:48.933Z,5.70
2018-04-01T09:04:51.692Z,5.70
2018-04-01T09:05:54.418Z,5.70
2018-04-01T09:06:57.141Z,5.70
2018-04-01T09:07:59.946Z,5.60
2018-04-01T09:09:02.655Z,5.60
2018-04-01T09:10:05.381Z,5.60
2018-04-01T09:11:08.095Z,5.70
2018-04-01T09:12:10.896Z,5.60
2018-04-01T09:13:13.624Z,5.60
2018-04-01T09:14:16.346Z,5.70
2018-04-01T09:15:19.058Z,5.60
2018-04-01T09:16:21.780Z,5.70
2018-04-01T09:17:24.500Z,5.70
2018-04-01T09:18:27.224Z,5.60
2018-04-01T09:19:29.938Z,5.70
2018-04-01T09:20:32.665Z,5.80
2018-04-01T09:21:35.380Z,5.90
2018-04-01T09:22:38.196Z,6.00
2018-04-01T09:23:41.664Z,6.10
2018-04-01T09:24:44.377Z,6.00
2018-04-01T09:25:47.116Z,6.10
2018-04-01T09:26:51.367Z,6.10
2018-04-01T09:27:54.107Z,6.10
2018-04-01T09:28:57.593Z,6.20
2018-04-01T09:30:01.089Z,6.20
2018-04-01T09:31:03.801Z,6.20
2018-04-01T09:32:06.523Z,6.20
2018-04-01T09:33:10.016Z,6.30
2018-04-01T09:34:13.494Z,6.40
2018-04-01T09:35:17.001Z,6.50
2018-04-01T09:36:19.720Z,6.50
2018-04-01T09:37:22.436Z,6.60
2018-04-01T09:38:25.157Z,6.60
2018-04-01T09:39:27.877Z,6.70
2018-04-01T09:40:31.462Z,7.00
2018-04-01T09:41:34.991Z,6.90
2018-04-01T09:42:37.705Z,6.90
2018-04-01T09:43:40.428Z,6.90
2018-04-01T09:44:43.151Z,6.90
2018-04-01T09:45:45.983Z,6.90
2018-04-01T09:46:48.692Z,6.90
2018-04-01T09:47:51.420Z,6.90
2018-04-01T09:48:54.145Z,6.90
2018-04-01T09:49:57.693Z,6.90
2018-04-01T09:51:01.112Z,6.80
2018-04-01T09:52:03.829Z,6.80
2018-04-01T09:53:06.573Z,6.80
2018-04-01T09:54:10.060Z,7.00
2018-04-01T09:55:13.557Z,7.00
2018-04-01T09:56:17.183Z,7.00
2018-04-01T09:57:20.731Z,6.90
2018-04-01T09:58:24.216Z,6.80
2018-04-01T09:59:27.709Z,6.80
2018-04-01T10:00:31.672Z,6.80
2018-04-01T10:01:34.883Z,6.80
2018-04-01T10:02:38.877Z,6.90
2018-04-01T10:03:42.907Z,7.00
2018-04-01T10:04:46.113Z,7.00
2018-04-01T10:05:49.343Z,7.00
2018-04-01T10:06:52.553Z,7.00
2018-04-01T10:07:55.758Z,7.10
2018-04-01T10:08:59.003Z,7.20
2018-04-01T10:10:02.997Z,7.20
2018-04-01T10:11:07.008Z,7.30
2018-04-01T10:12:10.222Z,7.30
2018-04-01T10:13:13.431Z,7.20
2018-04-01T10:14:16.638Z,7.20
2018-04-01T10:15:20.608Z,7.20
2018-04-01T10:16:23.849Z,7.20
2018-04-01T10:17:27.067Z,7.20
2018-04-01T10:18:30.320Z,7.30
2018-04-01T10:19:33.575Z,7.30
2018-04-01T10:20:37.565Z,7.60
2018-04-01T10:21:40.788Z,7.60
2018-04-01T10:22:44.052Z,7.70
2018-04-01T10:23:48.050Z,7.80
2018-04-01T10:24:52.048Z,7.80
2018-04-01T10:25:56.017Z,8.00
2018-04-01T10:26:59.222Z,8.00
2018-04-01T10:28:03.198Z,8.10
2018-04-01T10:29:06.421Z,8.10
2018-04-01T10:30:10.385Z,8.00
2018-04-01T10:31:13.597Z,8.00
2018-04-01T10:32:17.572Z,8.00
2018-04-01T10:33:20.776Z,8.00
2018-04-01T10:34:24.750Z,8.00
2018-04-01T10:35:27.963Z,8.00
2018-04-01T10:36:31.958Z,8.00
2018-04-01T10:37:35.967Z,8.10
2018-04-01T10:38:39.966Z,7.90
2018-04-01T10:39:43.965Z,7.80
2018-04-01T10:40:47.969Z,7.80
2018-04-01T10:41:51.955Z,7.80
2018-04-01T10:42:55.159Z,7.80
2018-04-01T10:43:58.378Z,7.80
2018-04-01T10:45:01.592Z,7.90
2018-04-01T10:46:04.789Z,7.80
2018-04-01T10:47:08.792Z,7.70
2018-04-01T10:48:12.020Z,7.70
2018-04-01T10:49:15.216Z,7.70
2018-04-01T10:50:18.453Z,7.70
2018-04-01T10:51:21.681Z,7.70
2018-04-01T10:52:24.917Z,7.80
2018-04-01T10:53:28.903Z,7.70
2018-04-01T10:54:32.380Z,7.70
2018-04-01T10:55:35.118Z,7.60
2018-04-01T10:56:37.822Z,7.60
2018-04-01T10:57:40.541Z,7.60
2018-04-01T10:59:52.402Z,7.70
2018-04-01T11:00:55.984Z,7.80
2018-04-01T11:01:59.496Z,7.90
2018-04-01T11:03:02.217Z,7.90
2018-04-01T11:04:04.952Z,8.00
2018-04-01T11:05:07.724Z,8.00
2018-04-01T11:06:10.429Z,8.00
2018-04-01T11:07:13.161Z,7.90
2018-04-01T11:08:15.909Z,7.90
2018-04-01T11:09:19.381Z,8.00
2018-04-01T11:10:22.108Z,8.00
2018-04-01T11:11:24.870Z,8.10
2018-04-01T11:12:28.344Z,8.20
2018-04-01T11:13:31.835Z,8.20
2018-04-01T11:14:34.572Z,8.20
2018-04-01T11:15:37.323Z,8.30
2018-04-01T11:16:40.036Z,8.20
2018-04-01T11:17:42.813Z,8.30
2018-04-01T11:18:45.526Z,8.40
2018-04-01T11:19:48.280Z,8.40
2018-04-01T11:20:50.989Z,8.50
2018-04-01T11:21:53.709Z,8.50
2018-04-01T11:22:56.423Z,8.60
2018-04-01T11:23:59.135Z,8.70
2018-04-01T11:25:01.848Z,8.70
2018-04-01T11:26:04.595Z,8.50
2018-04-01T11:27:08.059Z,8.20
2018-04-01T11:28:10.780Z,8.20
2018-04-01T11:29:13.498Z,8.30
2018-04-01T11:30:16.978Z,8.30
2018-04-01T11:31:19.731Z,8.30
2018-04-01T11:32:22.404Z,8.40
2018-04-01T11:33:25.136Z,8.50
2018-04-01T11:34:27.889Z,8.40
2018-04-01T11:35:30.636Z,8.40
2018-04-01T11:36:33.324Z,8.40
2018-04-01T11:37:36.048Z,8.40
2018-04-01T11:38:38.788Z,8.30
2018-04-01T11:39:41.510Z,8.30
2018-04-01T11:40:45.029Z,8.30
2018-04-01T11:41:48.499Z,8.20
2018-04-01T11:42:51.984Z,8.20
2018-04-01T11:43:55.489Z,8.20
2018-04-01T11:44:58.972Z,8.10
2018-04-01T11:46:02.439Z,8.10
2018-04-01T11:47:05.155Z,8.10
2018-04-01T11:48:07.875Z,8.20
2018-04-01T11:49:10.676Z,8.20
2018-04-01T11:50:13.436Z,8.20
2018-04-01T11:51:17.028Z,8.10
2018-04-01T11:52:20.531Z,8.20
2018-04-01T11:53:24.014Z,8.10
2018-04-01T11:54:27.620Z,8.10
2018-04-01T11:55:30.342Z,8.00
2018-04-01T11:56:33.061Z,8.00
2018-04-01T11:57:35.834Z,8.00
2018-04-01T11:58:38.548Z,8.10
2018-04-01T11:59:41.272Z,8.20
2018-04-01T12:00:44.006Z,8.20
2018-04-01T12:01:46.735Z,8.20
2018-04-01T12:02:49.630Z,8.20
2018-04-01T12:03:53.069Z,8.40
2018-04-01T12:04:55.857Z,8.40
2018-04-01T12:05:58.561Z,8.40
2018-04-01T12:07:01.369Z,8.40
2018-04-01T12:08:04.878Z,8.50
2018-04-01T12:09:07.648Z,8.50
2018-04-01T12:10:10.373Z,8.50
2018-04-01T12:11:13.092Z,8.60
2018-04-01T12:12:16.255Z,8.50
2018-04-01T12:13:19.732Z,8.50
2018-04-01T12:14:22.481Z,8.50
2018-04-01T12:15:25.196Z,8.50
2018-04-01T12:16:27.907Z,8.50
2018-04-01T12:17:30.620Z,8.50
2018-04-01T12:18:34.116Z,8.50
2018-04-01T12:19:37.598Z,8.50
2018-04-01T12:20:40.344Z,8.50
2018-04-01T12:21:43.053Z,8.50
2018-04-01T12:22:46.518Z,8.70
2018-04-01T12:23:49.277Z,8.70
2018-04-01T12:24:52.013Z,8.70
2018-04-01T12:25:54.708Z,8.70
2018-04-01T12:26:57.457Z,8.70
2018-04-01T12:28:00.157Z,8.60
2018-04-01T12:29:02.869Z,8.60
2018-04-01T12:30:06.342Z,8.70
2018-04-01T12:31:09.823Z,8.70
2018-04-01T12:32:12.552Z,8.70
2018-04-01T12:33:15.263Z,8.80
2018-04-01T12:34:17.989Z,8.80
2018-04-01T12:35:20.700Z,8.60
2018-04-01T12:36:23.416Z,8.80
2018-04-01T12:37:26.137Z,8.80
2018-04-01T12:38:28.861Z,8.80
2018-04-01T12:39:31.610Z,8.90
2018-04-01T12:40:35.113Z,9.20
2018-04-01T12:41:37.826Z,9.20
2018-04-01T12:42:40.552Z,9.10
2018-04-01T12:43:43.281Z,9.10
2018-04-01T12:44:46.081Z,9.30
2018-04-01T12:45:49.560Z,9.30
2018-04-01T12:46:53.051Z,9.30
2018-04-01T12:47:56.572Z,9.30
2018-04-01T12:48:59.344Z,9.30
2018-04-01T12:50:02.052Z,9.40
2018-04-01T12:51:04.885Z,9.20
2018-04-01T12:52:07.585Z,9.20
2018-04-01T12:53:10.314Z,9.20
2018-04-01T12:54:13.798Z,9.20
2018-04-01T12:55:17.289Z,9.20
2018-04-01T12:56:20.894Z,9.20
2018-04-01T12:57:24.362Z,9.10
2018-04-01T12:58:27.144Z,9.10
2018-04-01T12:59:29.863Z,9.10
2018-04-01T13:00:32.584Z,9.10
2018-04-01T13:01:35.306Z,8.90
2018-04-01T13:02:38.019Z,8.80
2018-04-01T13:03:41.491Z,8.90
2018-04-01T13:04:44.272Z,9.00
2018-04-01T13:05:47.756Z,9.10
2018-04-01T13:06:51.237Z,9.10
2018-04-01T13:07:53.952Z,9.10
2018-04-01T13:08:56.676Z,9.20
2018-04-01T13:09:59.384Z,9.20
2018-04-01T13:11:02.102Z,9.20
2018-04-01T13:12:04.880Z,9.10
2018-04-01T13:13:07.563Z,8.90
2018-04-01T13:14:10.292Z,8.90
2018-04-01T13:15:13.017Z,8.80
2018-04-01T13:16:16.503Z,8.70
2018-04-01T13:17:19.984Z,8.70
2018-04-01T13:18:23.484Z,8.70
2018-04-01T13:19:26.959Z,8.20
2018-04-01T13:20:29.687Z,8.10
2018-04-01T13:21:32.466Z,7.80
2018-04-01T13:22:35.180Z,7.40
2018-04-01T13:23:38.670Z,6.40
2018-04-01T13:24:42.182Z,6.10
2018-04-01T13:25:45.648Z,5.80
2018-04-01T13:26:49.123Z,5.40
2018-04-01T13:27:53.349Z,4.90
2018-04-01T13:28:56.825Z,4.60
2018-04-01T13:30:00.308Z,4.50
2018-04-01T13:31:03.052Z,4.50
2018-04-01T13:32:05.801Z,4.30
2018-04-01T13:33:08.528Z,4.10
2018-04-01T13:34:12.064Z,4.00
2018-04-01T13:35:14.760Z,4.00
2018-04-01T13:36:17.494Z,4.00
2018-04-01T13:37:20.246Z,4.00
2018-04-01T13:38:23.744Z,4.20
2018-04-01T13:39:26.459Z,4.20
2018-04-01T13:40:29.166Z,4.40
2018-04-01T13:41:32.638Z,4.90
2018-04-01T13:42:36.059Z,4.90
2018-04-01T13:43:38.779Z,5.30
2018-04-01T13:44:41.522Z,5.70
2018-04-01T13:45:44.223Z,6.10
2018-04-01T13:46:47.029Z,6.30
2018-04-01T13:47:50.530Z,7.10
2018-04-01T13:48:54.010Z,7.30
2018-04-01T13:49:57.491Z,7.40
2018-04-01T13:51:00.960Z,7.50
2018-04-01T13:52:03.684Z,7.60
2018-04-01T13:53:06.488Z,7.80
2018-04-01T13:54:09.164Z,7.90
2018-04-01T13:55:12.066Z,8.00
2018-04-01T13:56:14.807Z,8.20
2018-04-01T13:57:17.514Z,8.30
2018-04-01T13:58:20.249Z,8.50
2018-04-01T13:59:22.970Z,8.50
2018-04-01T14:00:25.725Z,8.70
2018-04-01T14:01:29.203Z,9.40